Fallston, Maryland
Current Conditions -  °F | °C
As of 8:50 PM on Monday 22 Dec 2014 (Local Time) from KMTN Reporting Station
Moderate Rain Moderate Rain  
Wind Chill: 36°   Ceiling: 1100
Heat Index: 39°   Visibility: 3mi
Dew Point: 39°   Wind: 5mph
Humidity: 100%   Direction: 330°NNW
Pressure: 30.17"   Gusts: NA
Location:  39.52°N, 76.41°W
Report Text: KMTN 230150Z 33004KT 3SM RA BKN011 OVC015 04/04 A3017
Loading
Personal Weather Stations






























Interactive Weather Map New forecast layout! Learn more

10-Day Weather Forecast

Advertisements
Track Severe Weather on mobile